Aviation Digital Data Service (ADDS)

Output produced by METARs form (2000 UTC 23 March 2017)
found at http://www.aviationweather.gov/adds/metars/
 
KLNS 231953Z VRB06KT 10SM CLR 06/M12 A3053 RMK AO2 SLP344 T00561117
KLNS 231808Z 2318/2418 28004KT P6SM SCT250 
     FM240000 13003KT P6SM BKN150 
     FM241100 16005KT P6SM -RA OVC050 
     PROB30 2411/2412 -FZRA